sensor_id;sensor_type;location;lat;lon;timestamp;P1;durP1;ratioP1;P2;durP2;ratioP2
67442;SDS011;54311;51.726;5.154;2023-01-30T00:00:22;67.82;;;47.55;;
67442;SDS011;54311;51.726;5.154;2023-01-30T00:02:47;69.72;;;49.35;;
67442;SDS011;54311;51.726;5.154;2023-01-30T00:05:13;69.25;;;47.65;;
67442;SDS011;54311;51.726;5.154;2023-01-30T00:07:38;66.65;;;48.05;;
67442;SDS011;54311;51.726;5.154;2023-01-30T00:10:03;68.40;;;49.35;;
67442;SDS011;54311;51.726;5.154;2023-01-30T00:12:29;67.55;;;48.63;;
67442;SDS011;54311;51.726;5.154;2023-01-30T00:14:54;69.93;;;50.25;;
67442;SDS011;54311;51.726;5.154;2023-01-30T00:17:20;60.83;;;45.65;;
67442;SDS011;54311;51.726;5.154;2023-01-30T00:19:45;68.75;;;52.05;;
67442;SDS011;54311;51.726;5.154;2023-01-30T00:22:10;65.65;;;50.55;;
67442;SDS011;54311;51.726;5.154;2023-01-30T00:24:35;60.10;;;45.85;;
67442;SDS011;54311;51.726;5.154;2023-01-30T00:27:01;76.82;;;48.20;;
67442;SDS011;54311;51.726;5.154;2023-01-30T00:29:26;62.83;;;44.55;;
67442;SDS011;54311;51.726;5.154;2023-01-30T00:31:51;62.58;;;48.03;;
67442;SDS011;54311;51.726;5.154;2023-01-30T00:34:17;60.08;;;44.03;;
67442;SDS011;54311;51.726;5.154;2023-01-30T00:36:42;61.78;;;44.53;;
67442;SDS011;54311;51.726;5.154;2023-01-30T00:39:08;53.58;;;40.63;;
67442;SDS011;54311;51.726;5.154;2023-01-30T00:41:33;62.70;;;45.35;;
67442;SDS011;54311;51.726;5.154;2023-01-30T00:44:17;59.22;;;42.97;;
67442;SDS011;54311;51.726;5.154;2023-01-30T00:47:01;58.33;;;43.23;;
67442;SDS011;54311;51.726;5.154;2023-01-30T00:49:29;55.35;;;41.25;;
67442;SDS011;54311;51.726;5.154;2023-01-30T00:51:54;60.03;;;42.53;;
67442;SDS011;54311;51.726;5.154;2023-01-30T00:54:19;52.50;;;39.22;;
67442;SDS011;54311;51.726;5.154;2023-01-30T00:56:45;55.53;;;41.42;;
67442;SDS011;54311;51.726;5.154;2023-01-30T00:59:10;49.85;;;36.63;;
67442;SDS011;54311;51.726;5.154;2023-01-30T01:01:35;57.10;;;40.60;;
67442;SDS011;54311;51.726;5.154;2023-01-30T01:04:01;62.05;;;37.20;;
67442;SDS011;54311;51.726;5.154;2023-01-30T01:06:27;52.08;;;35.83;;
67442;SDS011;54311;51.726;5.154;2023-01-30T01:08:52;48.45;;;36.13;;
67442;SDS011;54311;51.726;5.154;2023-01-30T01:11:18;39.45;;;34.20;;
67442;SDS011;54311;51.726;5.154;2023-01-30T01:13:50;41.08;;;31.05;;
67442;SDS011;54311;51.726;5.154;2023-01-30T01:16:16;41.55;;;29.92;;
67442;SDS011;54311;51.726;5.154;2023-01-30T01:18:41;43.22;;;30.27;;
67442;SDS011;54311;51.726;5.154;2023-01-30T01:21:07;38.83;;;30.73;;
67442;SDS011;54311;51.726;5.154;2023-01-30T01:23:32;40.67;;;28.42;;
67442;SDS011;54311;51.726;5.154;2023-01-30T01:26:00;37.97;;;28.30;;
67442;SDS011;54311;51.726;5.154;2023-01-30T01:28:26;32.33;;;25.67;;
67442;SDS011;54311;51.726;5.154;2023-01-30T01:30:51;38.70;;;25.27;;
67442;SDS011;54311;51.726;5.154;2023-01-30T01:33:16;29.27;;;23.50;;
67442;SDS011;54311;51.726;5.154;2023-01-30T01:35:41;30.05;;;24.05;;
67442;SDS011;54311;51.726;5.154;2023-01-30T01:38:07;29.95;;;23.23;;
67442;SDS011;54311;51.726;5.154;2023-01-30T01:40:32;33.42;;;23.90;;
67442;SDS011;54311;51.726;5.154;2023-01-30T01:43:17;31.02;;;24.23;;
67442;SDS011;54311;51.726;5.154;2023-01-30T01:45:44;27.20;;;20.73;;
67442;SDS011;54311;51.726;5.154;2023-01-30T01:48:14;27.15;;;23.52;;
67442;SDS011;54311;51.726;5.154;2023-01-30T01:53:25;25.92;;;18.88;;
67442;SDS011;54311;51.726;5.154;2023-01-30T01:55:53;33.72;;;20.92;;
67442;SDS011;54311;51.726;5.154;2023-01-30T01:58:22;28.92;;;20.90;;
67442;SDS011;54311;51.726;5.154;2023-01-30T02:00:50;24.50;;;18.95;;
67442;SDS011;54311;51.726;5.154;2023-01-30T02:03:20;26.27;;;20.88;;
67442;SDS011;54311;51.726;5.154;2023-01-30T02:05:48;29.98;;;20.77;;
67442;SDS011;54311;51.726;5.154;2023-01-30T02:10:48;21.35;;;17.52;;
67442;SDS011;54311;51.726;5.154;2023-01-30T02:13:15;23.88;;;18.48;;
67442;SDS011;54311;51.726;5.154;2023-01-30T02:15:41;28.58;;;18.55;;
67442;SDS011;54311;51.726;5.154;2023-01-30T02:18:06;24.88;;;17.77;;
67442;SDS011;54311;51.726;5.154;2023-01-30T02:20:44;24.70;;;18.50;;
67442;SDS011;54311;51.726;5.154;2023-01-30T02:29:09;26.30;;;16.15;;
67442;SDS011;54311;51.726;5.154;2023-01-30T02:32:13;23.88;;;16.95;;
67442;SDS011;54311;51.726;5.154;2023-01-30T02:34:43;16.38;;;14.65;;
67442;SDS011;54311;51.726;5.154;2023-01-30T02:37:21;20.65;;;15.57;;
67442;SDS011;54311;51.726;5.154;2023-01-30T02:45:16;19.05;;;15.65;;
67442;SDS011;54311;51.726;5.154;2023-01-30T02:47:43;23.02;;;18.17;;
67442;SDS011;54311;51.726;5.154;2023-01-30T02:50:15;18.52;;;16.55;;
67442;SDS011;54311;51.726;5.154;2023-01-30T02:52:43;27.75;;;15.98;;
67442;SDS011;54311;51.726;5.154;2023-01-30T02:55:13;23.98;;;16.20;;
67442;SDS011;54311;51.726;5.154;2023-01-30T02:57:42;21.90;;;16.35;;
67442;SDS011;54311;51.726;5.154;2023-01-30T03:00:08;31.90;;;18.13;;
67442;SDS011;54311;51.726;5.154;2023-01-30T03:05:56;23.73;;;15.68;;
67442;SDS011;54311;51.726;5.154;2023-01-30T03:08:33;21.98;;;15.88;;
67442;SDS011;54311;51.726;5.154;2023-01-30T03:11:07;22.48;;;16.60;;
67442;SDS011;54311;51.726;5.154;2023-01-30T03:13:41;19.45;;;14.20;;
67442;SDS011;54311;51.726;5.154;2023-01-30T03:16:14;25.20;;;15.18;;
67442;SDS011;54311;51.726;5.154;2023-01-30T03:18:42;22.60;;;14.65;;
67442;SDS011;54311;51.726;5.154;2023-01-30T03:21:08;17.25;;;14.48;;
67442;SDS011;54311;51.726;5.154;2023-01-30T03:23:33;24.88;;;16.90;;
67442;SDS011;54311;51.726;5.154;2023-01-30T03:25:59;23.77;;;15.10;;
67442;SDS011;54311;51.726;5.154;2023-01-30T03:28:24;18.80;;;14.52;;
67442;SDS011;54311;51.726;5.154;2023-01-30T03:30:50;19.27;;;14.88;;
67442;SDS011;54311;51.726;5.154;2023-01-30T03:33:16;24.40;;;14.23;;
67442;SDS011;54311;51.726;5.154;2023-01-30T03:35:41;18.90;;;13.98;;
67442;SDS011;54311;51.726;5.154;2023-01-30T03:38:07;23.23;;;14.18;;
67442;SDS011;54311;51.726;5.154;2023-01-30T03:40:32;22.33;;;14.23;;
67442;SDS011;54311;51.726;5.154;2023-01-30T03:42:59;17.73;;;14.20;;
67442;SDS011;54311;51.726;5.154;2023-01-30T03:45:24;22.52;;;14.27;;
67442;SDS011;54311;51.726;5.154;2023-01-30T03:47:49;20.77;;;13.48;;
67442;SDS011;54311;51.726;5.154;2023-01-30T03:50:16;22.33;;;14.77;;
67442;SDS011;54311;51.726;5.154;2023-01-30T03:52:41;29.30;;;15.07;;
67442;SDS011;54311;51.726;5.154;2023-01-30T03:55:06;20.80;;;12.63;;
67442;SDS011;54311;51.726;5.154;2023-01-30T03:57:32;30.38;;;14.05;;
67442;SDS011;54311;51.726;5.154;2023-01-30T03:59:57;21.27;;;13.63;;
67442;SDS011;54311;51.726;5.154;2023-01-30T04:02:23;20.98;;;13.05;;
67442;SDS011;54311;51.726;5.154;2023-01-30T04:04:50;26.05;;;14.38;;
67442;SDS011;54311;51.726;5.154;2023-01-30T04:07:15;19.17;;;13.90;;
67442;SDS011;54311;51.726;5.154;2023-01-30T04:09:41;21.17;;;13.90;;
67442;SDS011;54311;51.726;5.154;2023-01-30T04:12:07;19.65;;;12.25;;
67442;SDS011;54311;51.726;5.154;2023-01-30T04:14:32;28.60;;;13.73;;
67442;SDS011;54311;51.726;5.154;2023-01-30T04:16:57;23.75;;;13.68;;
67442;SDS011;54311;51.726;5.154;2023-01-30T04:19:22;20.52;;;12.68;;
67442;SDS011;54311;51.726;5.154;2023-01-30T04:21:48;19.38;;;13.52;;
67442;SDS011;54311;51.726;5.154;2023-01-30T04:24:13;21.88;;;12.90;;
67442;SDS011;54311;51.726;5.154;2023-01-30T04:26:38;25.20;;;13.50;;
67442;SDS011;54311;51.726;5.154;2023-01-30T04:29:04;22.45;;;11.80;;
67442;SDS011;54311;51.726;5.154;2023-01-30T04:31:29;26.00;;;12.85;;
67442;SDS011;54311;51.726;5.154;2023-01-30T04:33:54;17.48;;;12.75;;
67442;SDS011;54311;51.726;5.154;2023-01-30T04:36:20;22.58;;;13.57;;
67442;SDS011;54311;51.726;5.154;2023-01-30T04:38:45;23.73;;;12.15;;
67442;SDS011;54311;51.726;5.154;2023-01-30T04:41:10;22.25;;;12.25;;
67442;SDS011;54311;51.726;5.154;2023-01-30T04:43:36;19.63;;;12.35;;
67442;SDS011;54311;51.726;5.154;2023-01-30T04:46:01;33.33;;;12.65;;
67442;SDS011;54311;51.726;5.154;2023-01-30T04:48:26;26.08;;;13.07;;
67442;SDS011;54311;51.726;5.154;2023-01-30T04:50:52;24.02;;;13.18;;
67442;SDS011;54311;51.726;5.154;2023-01-30T04:53:19;24.30;;;13.10;;
67442;SDS011;54311;51.726;5.154;2023-01-30T04:55:44;28.60;;;12.13;;
67442;SDS011;54311;51.726;5.154;2023-01-30T04:58:10;28.63;;;12.48;;
67442;SDS011;54311;51.726;5.154;2023-01-30T05:00:35;25.60;;;11.60;;
67442;SDS011;54311;51.726;5.154;2023-01-30T05:03:01;25.98;;;11.23;;
67442;SDS011;54311;51.726;5.154;2023-01-30T05:05:26;28.40;;;13.55;;
67442;SDS011;54311;51.726;5.154;2023-01-30T05:07:53;28.98;;;11.23;;
67442;SDS011;54311;51.726;5.154;2023-01-30T05:10:18;29.80;;;11.98;;
67442;SDS011;54311;51.726;5.154;2023-01-30T05:12:44;19.83;;;10.60;;
67442;SDS011;54311;51.726;5.154;2023-01-30T05:15:09;23.98;;;10.63;;
67442;SDS011;54311;51.726;5.154;2023-01-30T05:17:36;20.02;;;10.23;;
67442;SDS011;54311;51.726;5.154;2023-01-30T05:20:02;33.80;;;10.02;;
67442;SDS011;54311;51.726;5.154;2023-01-30T05:22:28;25.33;;;9.88;;
67442;SDS011;54311;51.726;5.154;2023-01-30T05:24:53;19.33;;;9.13;;
67442;SDS011;54311;51.726;5.154;2023-01-30T05:27:19;26.10;;;10.32;;
67442;SDS011;54311;51.726;5.154;2023-01-30T05:29:44;27.88;;;10.20;;
67442;SDS011;54311;51.726;5.154;2023-01-30T05:32:11;24.33;;;9.82;;
67442;SDS011;54311;51.726;5.154;2023-01-30T05:34:38;19.30;;;9.20;;
67442;SDS011;54311;51.726;5.154;2023-01-30T05:37:03;21.20;;;9.02;;
67442;SDS011;54311;51.726;5.154;2023-01-30T05:39:29;28.73;;;8.73;;
67442;SDS011;54311;51.726;5.154;2023-01-30T05:41:54;25.23;;;8.63;;
67442;SDS011;54311;51.726;5.154;2023-01-30T05:44:19;15.80;;;8.23;;
67442;SDS011;54311;51.726;5.154;2023-01-30T05:46:45;19.80;;;7.65;;
67442;SDS011;54311;51.726;5.154;2023-01-30T05:49:10;20.35;;;7.78;;
67442;SDS011;54311;51.726;5.154;2023-01-30T05:51:35;24.48;;;8.68;;
67442;SDS011;54311;51.726;5.154;2023-01-30T05:54:01;17.35;;;7.47;;
67442;SDS011;54311;51.726;5.154;2023-01-30T05:56:26;16.15;;;7.88;;
67442;SDS011;54311;51.726;5.154;2023-01-30T05:58:52;17.77;;;6.85;;
67442;SDS011;54311;51.726;5.154;2023-01-30T06:01:18;18.25;;;7.53;;
67442;SDS011;54311;51.726;5.154;2023-01-30T06:03:44;13.48;;;6.72;;
67442;SDS011;54311;51.726;5.154;2023-01-30T06:06:09;16.80;;;6.88;;
67442;SDS011;54311;51.726;5.154;2023-01-30T06:08:35;13.20;;;6.13;;
67442;SDS011;54311;51.726;5.154;2023-01-30T06:11:01;13.70;;;6.63;;
67442;SDS011;54311;51.726;5.154;2023-01-30T06:13:32;20.25;;;7.65;;
67442;SDS011;54311;51.726;5.154;2023-01-30T06:15:57;9.27;;;6.35;;
67442;SDS011;54311;51.726;5.154;2023-01-30T06:18:23;17.48;;;7.00;;
67442;SDS011;54311;51.726;5.154;2023-01-30T06:20:49;17.95;;;6.95;;
67442;SDS011;54311;51.726;5.154;2023-01-30T06:23:14;17.75;;;6.25;;
67442;SDS011;54311;51.726;5.154;2023-01-30T06:25:44;15.07;;;7.10;;
67442;SDS011;54311;51.726;5.154;2023-01-30T06:28:10;18.73;;;7.47;;
67442;SDS011;54311;51.726;5.154;2023-01-30T06:30:35;15.45;;;5.47;;
67442;SDS011;54311;51.726;5.154;2023-01-30T06:33:01;13.75;;;6.03;;
67442;SDS011;54311;51.726;5.154;2023-01-30T06:35:26;14.25;;;6.00;;
67442;SDS011;54311;51.726;5.154;2023-01-30T06:37:51;18.98;;;6.63;;
67442;SDS011;54311;51.726;5.154;2023-01-30T06:40:17;16.45;;;6.35;;
67442;SDS011;54311;51.726;5.154;2023-01-30T06:42:43;20.52;;;6.78;;
67442;SDS011;54311;51.726;5.154;2023-01-30T06:45:09;21.25;;;6.95;;
67442;SDS011;54311;51.726;5.154;2023-01-30T06:47:42;13.13;;;6.00;;
67442;SDS011;54311;51.726;5.154;2023-01-30T06:50:15;17.65;;;6.80;;
67442;SDS011;54311;51.726;5.154;2023-01-30T06:52:42;19.48;;;6.72;;
67442;SDS011;54311;51.726;5.154;2023-01-30T06:55:09;16.15;;;6.25;;
67442;SDS011;54311;51.726;5.154;2023-01-30T06:57:35;15.10;;;6.72;;
67442;SDS011;54311;51.726;5.154;2023-01-30T07:00:02;20.80;;;7.28;;
67442;SDS011;54311;51.726;5.154;2023-01-30T07:02:29;18.15;;;6.55;;
67442;SDS011;54311;51.726;5.154;2023-01-30T07:04:58;26.77;;;7.13;;
67442;SDS011;54311;51.726;5.154;2023-01-30T07:07:23;16.63;;;6.28;;
67442;SDS011;54311;51.726;5.154;2023-01-30T07:09:49;21.58;;;7.05;;
67442;SDS011;54311;51.726;5.154;2023-01-30T07:12:14;19.20;;;6.22;;
67442;SDS011;54311;51.726;5.154;2023-01-30T07:14:39;23.83;;;6.00;;
67442;SDS011;54311;51.726;5.154;2023-01-30T07:17:05;15.52;;;6.25;;
67442;SDS011;54311;51.726;5.154;2023-01-30T07:19:30;18.23;;;5.88;;
67442;SDS011;54311;51.726;5.154;2023-01-30T07:21:55;15.45;;;6.13;;
67442;SDS011;54311;51.726;5.154;2023-01-30T07:24:21;23.58;;;6.68;;
67442;SDS011;54311;51.726;5.154;2023-01-30T07:26:46;17.50;;;6.50;;
67442;SDS011;54311;51.726;5.154;2023-01-30T07:29:13;21.90;;;6.88;;
67442;SDS011;54311;51.726;5.154;2023-01-30T07:31:38;28.20;;;8.45;;
67442;SDS011;54311;51.726;5.154;2023-01-30T07:34:04;20.40;;;6.55;;
67442;SDS011;54311;51.726;5.154;2023-01-30T07:36:29;24.48;;;7.10;;
67442;SDS011;54311;51.726;5.154;2023-01-30T07:38:57;25.70;;;6.35;;
67442;SDS011;54311;51.726;5.154;2023-01-30T07:41:23;26.15;;;6.97;;
67442;SDS011;54311;51.726;5.154;2023-01-30T07:43:48;27.02;;;7.65;;
67442;SDS011;54311;51.726;5.154;2023-01-30T07:46:14;17.95;;;7.13;;
67442;SDS011;54311;51.726;5.154;2023-01-30T07:48:39;24.48;;;7.55;;
67442;SDS011;54311;51.726;5.154;2023-01-30T07:51:04;28.88;;;8.38;;
67442;SDS011;54311;51.726;5.154;2023-01-30T07:53:30;23.10;;;6.90;;
67442;SDS011;54311;51.726;5.154;2023-01-30T07:55:55;22.48;;;6.05;;
67442;SDS011;54311;51.726;5.154;2023-01-30T07:58:20;23.55;;;6.82;;
67442;SDS011;54311;51.726;5.154;2023-01-30T08:00:45;27.23;;;6.78;;
67442;SDS011;54311;51.726;5.154;2023-01-30T08:03:11;20.48;;;6.43;;
67442;SDS011;54311;51.726;5.154;2023-01-30T08:05:38;18.25;;;5.93;;
67442;SDS011;54311;51.726;5.154;2023-01-30T08:08:03;27.20;;;6.72;;
67442;SDS011;54311;51.726;5.154;2023-01-30T08:10:28;22.35;;;6.65;;
67442;SDS011;54311;51.726;5.154;2023-01-30T08:12:54;27.45;;;6.88;;
67442;SDS011;54311;51.726;5.154;2023-01-30T08:15:19;23.85;;;6.32;;
67442;SDS011;54311;51.726;5.154;2023-01-30T08:17:51;25.80;;;7.10;;
67442;SDS011;54311;51.726;5.154;2023-01-30T08:20:20;25.38;;;6.55;;
67442;SDS011;54311;51.726;5.154;2023-01-30T08:22:45;20.98;;;7.35;;
67442;SDS011;54311;51.726;5.154;2023-01-30T08:25:11;25.90;;;7.10;;
67442;SDS011;54311;51.726;5.154;2023-01-30T08:27:36;27.58;;;7.40;;
67442;SDS011;54311;51.726;5.154;2023-01-30T08:30:01;20.73;;;7.50;;
67442;SDS011;54311;51.726;5.154;2023-01-30T08:32:27;16.80;;;6.22;;
67442;SDS011;54311;51.726;5.154;2023-01-30T08:34:52;17.77;;;6.20;;
67442;SDS011;54311;51.726;5.154;2023-01-30T08:37:18;29.42;;;8.35;;
67442;SDS011;54311;51.726;5.154;2023-01-30T08:39:43;28.58;;;6.65;;
67442;SDS011;54311;51.726;5.154;2023-01-30T08:42:08;29.70;;;7.35;;
67442;SDS011;54311;51.726;5.154;2023-01-30T08:44:34;24.92;;;8.60;;
67442;SDS011;54311;51.726;5.154;2023-01-30T08:46:59;18.63;;;6.28;;
67442;SDS011;54311;51.726;5.154;2023-01-30T08:49:24;23.85;;;6.63;;
67442;SDS011;54311;51.726;5.154;2023-01-30T08:51:50;22.83;;;6.80;;
67442;SDS011;54311;51.726;5.154;2023-01-30T08:54:15;25.27;;;7.10;;
67442;SDS011;54311;51.726;5.154;2023-01-30T08:56:40;23.05;;;7.85;;
67442;SDS011;54311;51.726;5.154;2023-01-30T08:59:06;21.83;;;7.10;;
67442;SDS011;54311;51.726;5.154;2023-01-30T09:01:31;30.23;;;7.20;;
67442;SDS011;54311;51.726;5.154;2023-01-30T09:03:57;28.50;;;7.72;;
67442;SDS011;54311;51.726;5.154;2023-01-30T09:06:22;25.52;;;7.70;;
67442;SDS011;54311;51.726;5.154;2023-01-30T09:08:48;16.92;;;6.50;;
67442;SDS011;54311;51.726;5.154;2023-01-30T09:11:14;28.85;;;7.57;;
67442;SDS011;54311;51.726;5.154;2023-01-30T09:13:39;22.13;;;6.40;;
67442;SDS011;54311;51.726;5.154;2023-01-30T09:16:07;20.15;;;6.55;;
67442;SDS011;54311;51.726;5.154;2023-01-30T09:18:36;21.83;;;6.88;;
67442;SDS011;54311;51.726;5.154;2023-01-30T09:21:03;25.95;;;8.20;;
67442;SDS011;54311;51.726;5.154;2023-01-30T09:23:28;18.00;;;6.57;;
67442;SDS011;54311;51.726;5.154;2023-01-30T09:25:54;32.42;;;8.45;;
67442;SDS011;54311;51.726;5.154;2023-01-30T09:28:19;24.80;;;7.55;;
67442;SDS011;54311;51.726;5.154;2023-01-30T09:30:44;22.92;;;8.23;;
67442;SDS011;54311;51.726;5.154;2023-01-30T09:33:10;16.65;;;5.97;;
67442;SDS011;54311;51.726;5.154;2023-01-30T09:35:35;24.08;;;6.65;;
67442;SDS011;54311;51.726;5.154;2023-01-30T09:38:00;27.63;;;6.47;;
67442;SDS011;54311;51.726;5.154;2023-01-30T09:40:27;27.67;;;8.52;;
67442;SDS011;54311;51.726;5.154;2023-01-30T09:43:08;27.08;;;7.05;;
67442;SDS011;54311;51.726;5.154;2023-01-30T09:45:56;20.25;;;6.82;;
67442;SDS011;54311;51.726;5.154;2023-01-30T09:48:33;27.08;;;7.55;;
67442;SDS011;54311;51.726;5.154;2023-01-30T09:51:13;22.42;;;6.85;;
67442;SDS011;54311;51.726;5.154;2023-01-30T09:56:14;19.50;;;7.10;;
67442;SDS011;54311;51.726;5.154;2023-01-30T10:04:04;19.30;;;7.43;;
67442;SDS011;54311;51.726;5.154;2023-01-30T10:06:31;17.08;;;5.70;;
67442;SDS011;54311;51.726;5.154;2023-01-30T10:09:03;22.08;;;6.60;;
67442;SDS011;54311;51.726;5.154;2023-01-30T10:20:05;20.25;;;7.53;;
67442;SDS011;54311;51.726;5.154;2023-01-30T10:25:59;24.45;;;7.57;;
67442;SDS011;54311;51.726;5.154;2023-01-30T10:28:30;21.77;;;6.32;;
67442;SDS011;54311;51.726;5.154;2023-01-30T10:30:59;26.63;;;7.50;;
67442;SDS011;54311;51.726;5.154;2023-01-30T10:36:07;22.48;;;6.82;;
67442;SDS011;54311;51.726;5.154;2023-01-30T10:43:42;22.88;;;8.10;;
67442;SDS011;54311;51.726;5.154;2023-01-30T10:57:10;26.25;;;7.80;;
67442;SDS011;54311;51.726;5.154;2023-01-30T10:59:49;28.08;;;6.25;;
67442;SDS011;54311;51.726;5.154;2023-01-30T11:02:22;26.73;;;6.70;;
67442;SDS011;54311;51.726;5.154;2023-01-30T11:04:56;30.83;;;8.63;;
67442;SDS011;54311;51.726;5.154;2023-01-30T11:07:23;28.40;;;7.72;;
67442;SDS011;54311;51.726;5.154;2023-01-30T11:09:49;27.48;;;7.80;;
67442;SDS011;54311;51.726;5.154;2023-01-30T11:12:14;27.42;;;6.78;;
67442;SDS011;54311;51.726;5.154;2023-01-30T11:17:19;28.13;;;8.23;;
67442;SDS011;54311;51.726;5.154;2023-01-30T11:19:52;28.38;;;8.73;;
67442;SDS011;54311;51.726;5.154;2023-01-30T11:22:19;37.13;;;8.88;;
67442;SDS011;54311;51.726;5.154;2023-01-30T11:24:45;27.17;;;7.65;;
67442;SDS011;54311;51.726;5.154;2023-01-30T11:27:30;23.05;;;6.45;;
67442;SDS011;54311;51.726;5.154;2023-01-30T11:32:37;31.73;;;7.82;;
67442;SDS011;54311;51.726;5.154;2023-01-30T11:37:31;26.80;;;8.15;;
67442;SDS011;54311;51.726;5.154;2023-01-30T11:39:58;23.23;;;7.93;;
67442;SDS011;54311;51.726;5.154;2023-01-30T11:42:27;24.15;;;7.75;;
67442;SDS011;54311;51.726;5.154;2023-01-30T11:44:55;33.70;;;7.60;;
67442;SDS011;54311;51.726;5.154;2023-01-30T11:47:25;27.80;;;8.07;;
67442;SDS011;54311;51.726;5.154;2023-01-30T11:49:52;26.95;;;7.30;;
67442;SDS011;54311;51.726;5.154;2023-01-30T11:52:25;27.20;;;8.52;;
67442;SDS011;54311;51.726;5.154;2023-01-30T11:54:58;27.98;;;7.40;;
67442;SDS011;54311;51.726;5.154;2023-01-30T11:57:29;25.95;;;7.78;;
67442;SDS011;54311;51.726;5.154;2023-01-30T12:00:02;27.93;;;7.60;;
67442;SDS011;54311;51.726;5.154;2023-01-30T12:02:29;27.95;;;7.28;;
67442;SDS011;54311;51.726;5.154;2023-01-30T12:04:58;33.85;;;8.80;;
67442;SDS011;54311;51.726;5.154;2023-01-30T12:07:26;27.92;;;7.45;;
67442;SDS011;54311;51.726;5.154;2023-01-30T12:09:53;31.67;;;7.80;;
67442;SDS011;54311;51.726;5.154;2023-01-30T12:26:12;29.65;;;8.77;;
67442;SDS011;54311;51.726;5.154;2023-01-30T12:28:44;21.35;;;7.18;;
67442;SDS011;54311;51.726;5.154;2023-01-30T12:31:12;26.50;;;7.60;;
67442;SDS011;54311;51.726;5.154;2023-01-30T12:33:42;32.03;;;7.35;;
67442;SDS011;54311;51.726;5.154;2023-01-30T12:36:11;26.13;;;8.27;;
67442;SDS011;54311;51.726;5.154;2023-01-30T12:41:47;29.60;;;8.25;;
67442;SDS011;54311;51.726;5.154;2023-01-30T12:44:25;28.27;;;8.00;;
67442;SDS011;54311;51.726;5.154;2023-01-30T12:49:27;30.70;;;8.30;;
67442;SDS011;54311;51.726;5.154;2023-01-30T13:05:41;27.63;;;6.70;;
67442;SDS011;54311;51.726;5.154;2023-01-30T13:13:15;28.83;;;8.02;;
67442;SDS011;54311;51.726;5.154;2023-01-30T13:18:31;29.90;;;7.53;;
67442;SDS011;54311;51.726;5.154;2023-01-30T13:28:46;31.58;;;7.07;;
67442;SDS011;54311;51.726;5.154;2023-01-30T13:31:20;32.50;;;8.00;;
67442;SDS011;54311;51.726;5.154;2023-01-30T13:33:49;18.77;;;6.68;;
67442;SDS011;54311;51.726;5.154;2023-01-30T13:39:15;27.20;;;8.45;;
67442;SDS011;54311;51.726;5.154;2023-01-30T13:41:49;28.58;;;8.00;;
67442;SDS011;54311;51.726;5.154;2023-01-30T13:44:19;31.52;;;7.03;;
67442;SDS011;54311;51.726;5.154;2023-01-30T13:46:46;26.95;;;6.70;;
67442;SDS011;54311;51.726;5.154;2023-01-30T13:49:33;26.50;;;7.97;;
67442;SDS011;54311;51.726;5.154;2023-01-30T13:54:45;36.45;;;8.02;;
67442;SDS011;54311;51.726;5.154;2023-01-30T13:57:23;30.17;;;7.32;;
67442;SDS011;54311;51.726;5.154;2023-01-30T14:08:34;28.33;;;8.18;;
67442;SDS011;54311;51.726;5.154;2023-01-30T14:11:01;32.22;;;7.95;;
67442;SDS011;54311;51.726;5.154;2023-01-30T14:13:27;28.10;;;8.07;;
67442;SDS011;54311;51.726;5.154;2023-01-30T14:18:20;33.10;;;8.23;;
67442;SDS011;54311;51.726;5.154;2023-01-30T14:20:48;29.38;;;7.90;;
67442;SDS011;54311;51.726;5.154;2023-01-30T14:23:27;36.30;;;8.60;;
67442;SDS011;54311;51.726;5.154;2023-01-30T14:25:55;29.85;;;9.35;;
67442;SDS011;54311;51.726;5.154;2023-01-30T14:30:47;27.58;;;7.15;;
67442;SDS011;54311;51.726;5.154;2023-01-30T14:35:46;29.23;;;7.35;;
67442;SDS011;54311;51.726;5.154;2023-01-30T14:38:27;26.50;;;6.88;;
67442;SDS011;54311;51.726;5.154;2023-01-30T14:43:31;32.55;;;8.45;;
67442;SDS011;54311;51.726;5.154;2023-01-30T14:46:03;31.17;;;7.53;;
67442;SDS011;54311;51.726;5.154;2023-01-30T14:53:56;35.67;;;8.55;;
67442;SDS011;54311;51.726;5.154;2023-01-30T15:07:16;33.72;;;8.18;;
67442;SDS011;54311;51.726;5.154;2023-01-30T15:09:57;26.77;;;7.25;;
67442;SDS011;54311;51.726;5.154;2023-01-30T15:12:40;31.60;;;6.68;;
67442;SDS011;54311;51.726;5.154;2023-01-30T15:29:33;28.05;;;7.50;;
67442;SDS011;54311;51.726;5.154;2023-01-30T15:32:20;23.25;;;6.82;;
67442;SDS011;54311;51.726;5.154;2023-01-30T15:34:50;29.10;;;8.07;;
67442;SDS011;54311;51.726;5.154;2023-01-30T15:37:28;28.30;;;6.20;;
67442;SDS011;54311;51.726;5.154;2023-01-30T15:40:17;30.35;;;7.57;;
67442;SDS011;54311;51.726;5.154;2023-01-30T15:43:10;24.30;;;7.38;;
67442;SDS011;54311;51.726;5.154;2023-01-30T15:45:52;33.28;;;8.20;;
67442;SDS011;54311;51.726;5.154;2023-01-30T15:48:45;28.98;;;7.93;;
67442;SDS011;54311;51.726;5.154;2023-01-30T15:51:21;35.63;;;8.65;;
67442;SDS011;54311;51.726;5.154;2023-01-30T15:53:51;37.22;;;8.07;;
67442;SDS011;54311;51.726;5.154;2023-01-30T15:56:21;34.38;;;8.35;;
67442;SDS011;54311;51.726;5.154;2023-01-30T15:58:47;29.20;;;8.20;;
67442;SDS011;54311;51.726;5.154;2023-01-30T16:01:16;36.75;;;8.88;;
67442;SDS011;54311;51.726;5.154;2023-01-30T16:03:43;32.50;;;8.73;;
67442;SDS011;54311;51.726;5.154;2023-01-30T16:06:22;32.00;;;8.25;;
67442;SDS011;54311;51.726;5.154;2023-01-30T16:09:04;42.03;;;8.40;;
67442;SDS011;54311;51.726;5.154;2023-01-30T16:14:09;27.77;;;7.82;;
67442;SDS011;54311;51.726;5.154;2023-01-30T16:16:36;25.65;;;7.47;;
67442;SDS011;54311;51.726;5.154;2023-01-30T16:19:02;21.80;;;7.20;;
67442;SDS011;54311;51.726;5.154;2023-01-30T16:21:31;25.25;;;7.57;;
67442;SDS011;54311;51.726;5.154;2023-01-30T16:26:27;37.90;;;8.23;;
67442;SDS011;54311;51.726;5.154;2023-01-30T16:29:15;29.13;;;7.45;;
67442;SDS011;54311;51.726;5.154;2023-01-30T16:31:40;30.30;;;6.63;;
67442;SDS011;54311;51.726;5.154;2023-01-30T16:34:05;31.70;;;8.55;;
67442;SDS011;54311;51.726;5.154;2023-01-30T16:36:51;29.95;;;7.60;;
67442;SDS011;54311;51.726;5.154;2023-01-30T16:39:27;29.95;;;8.65;;
67442;SDS011;54311;51.726;5.154;2023-01-30T16:41:55;23.92;;;6.97;;
67442;SDS011;54311;51.726;5.154;2023-01-30T16:44:22;30.35;;;7.53;;
67442;SDS011;54311;51.726;5.154;2023-01-30T16:46:50;23.40;;;7.22;;
67442;SDS011;54311;51.726;5.154;2023-01-30T16:54:29;27.33;;;7.18;;
67442;SDS011;54311;51.726;5.154;2023-01-30T16:56:56;30.38;;;7.38;;
67442;SDS011;54311;51.726;5.154;2023-01-30T16:59:32;33.47;;;8.30;;
67442;SDS011;54311;51.726;5.154;2023-01-30T17:01:58;44.70;;;10.05;;
67442;SDS011;54311;51.726;5.154;2023-01-30T17:04:30;45.65;;;9.93;;
67442;SDS011;54311;51.726;5.154;2023-01-30T17:07:03;38.08;;;8.80;;
67442;SDS011;54311;51.726;5.154;2023-01-30T17:09:44;37.03;;;9.57;;
67442;SDS011;54311;51.726;5.154;2023-01-30T17:17:33;39.40;;;8.55;;
67442;SDS011;54311;51.726;5.154;2023-01-30T17:19:58;47.28;;;9.60;;
67442;SDS011;54311;51.726;5.154;2023-01-30T17:22:24;34.17;;;7.70;;
67442;SDS011;54311;51.726;5.154;2023-01-30T17:24:57;47.88;;;9.77;;
67442;SDS011;54311;51.726;5.154;2023-01-30T17:27:25;37.60;;;8.38;;
67442;SDS011;54311;51.726;5.154;2023-01-30T17:29:51;37.97;;;8.93;;
67442;SDS011;54311;51.726;5.154;2023-01-30T17:32:16;38.25;;;8.45;;
67442;SDS011;54311;51.726;5.154;2023-01-30T17:34:42;40.25;;;8.75;;
67442;SDS011;54311;51.726;5.154;2023-01-30T17:37:09;36.25;;;9.05;;
67442;SDS011;54311;51.726;5.154;2023-01-30T17:39:41;34.42;;;7.80;;
67442;SDS011;54311;51.726;5.154;2023-01-30T17:42:10;34.33;;;9.60;;